sensor_id;sensor_type;location;lat;lon;timestamp;pressure;altitude;pressure_sealevel;temperature;humidity
5691;BME280;2870;42.680;23.364;2023-05-08T00:01:00;95270.38;;;14.91;65.51
5691;BME280;2870;42.680;23.364;2023-05-08T00:03:27;95277.31;;;14.80;65.82
5691;BME280;2870;42.680;23.364;2023-05-08T00:05:55;95278.19;;;15.00;65.48
5691;BME280;2870;42.680;23.364;2023-05-08T00:08:22;95281.16;;;15.02;65.67
5691;BME280;2870;42.680;23.364;2023-05-08T00:10:49;95281.53;;;14.89;65.98
5691;BME280;2870;42.680;23.364;2023-05-08T00:13:16;95270.38;;;14.64;66.53
5691;BME280;2870;42.680;23.364;2023-05-08T00:15:43;95275.13;;;14.61;67.20
5691;BME280;2870;42.680;23.364;2023-05-08T00:18:09;95278.75;;;14.71;66.69
5691;BME280;2870;42.680;23.364;2023-05-08T00:20:36;95288.31;;;14.76;66.63
5691;BME280;2870;42.680;23.364;2023-05-08T00:23:05;95280.84;;;14.71;66.69
5691;BME280;2870;42.680;23.364;2023-05-08T00:25:32;95278.53;;;14.60;66.79
5691;BME280;2870;42.680;23.364;2023-05-08T00:27:58;95253.69;;;14.23;68.14
5691;BME280;2870;42.680;23.364;2023-05-08T00:30:25;95272.13;;;14.42;67.65
5691;BME280;2870;42.680;23.364;2023-05-08T00:32:52;95282.94;;;14.36;67.84
5691;BME280;2870;42.680;23.364;2023-05-08T00:35:19;95289.38;;;14.46;68.21
5691;BME280;2870;42.680;23.364;2023-05-08T00:37:46;95288.47;;;14.61;67.75
5691;BME280;2870;42.680;23.364;2023-05-08T00:40:14;95288.81;;;14.30;68.22
5691;BME280;2870;42.680;23.364;2023-05-08T00:42:41;95290.56;;;14.25;68.79
5691;BME280;2870;42.680;23.364;2023-05-08T00:45:08;95283.44;;;14.24;69.20
5691;BME280;2870;42.680;23.364;2023-05-08T00:47:35;95285.56;;;14.16;69.25
5691;BME280;2870;42.680;23.364;2023-05-08T00:50:03;95290.06;;;14.02;69.64
5691;BME280;2870;42.680;23.364;2023-05-08T00:52:32;95295.84;;;14.04;69.84
5691;BME280;2870;42.680;23.364;2023-05-08T00:54:59;95287.06;;;14.17;69.52
5691;BME280;2870;42.680;23.364;2023-05-08T00:57:28;95293.88;;;14.14;69.44
5691;BME280;2870;42.680;23.364;2023-05-08T00:59:59;95292.16;;;14.19;69.94
5691;BME280;2870;42.680;23.364;2023-05-08T01:02:27;95290.84;;;13.95;70.13
5691;BME280;2870;42.680;23.364;2023-05-08T01:04:56;95287.00;;;14.08;69.77
5691;BME280;2870;42.680;23.364;2023-05-08T01:07:23;95291.97;;;14.17;70.47
5691;BME280;2870;42.680;23.364;2023-05-08T01:09:50;95295.75;;;14.12;70.11
5691;BME280;2870;42.680;23.364;2023-05-08T01:12:20;95296.00;;;14.06;69.87
5691;BME280;2870;42.680;23.364;2023-05-08T01:15:05;95294.38;;;14.03;69.86
5691;BME280;2870;42.680;23.364;2023-05-08T01:17:43;95301.50;;;14.04;70.07
5691;BME280;2870;42.680;23.364;2023-05-08T01:20:29;95303.81;;;13.98;70.25
5691;BME280;2870;42.680;23.364;2023-05-08T01:26:13;95301.00;;;14.15;69.69
5691;BME280;2870;42.680;23.364;2023-05-08T01:34:56;95294.59;;;13.97;69.96
5691;BME280;2870;42.680;23.364;2023-05-08T01:37:29;95286.75;;;13.96;70.83
5691;BME280;2870;42.680;23.364;2023-05-08T01:40:08;95290.94;;;13.87;70.86
5691;BME280;2870;42.680;23.364;2023-05-08T01:42:45;95286.78;;;13.88;70.74
5691;BME280;2870;42.680;23.364;2023-05-08T01:45:19;95287.53;;;13.89;70.98
5691;BME280;2870;42.680;23.364;2023-05-08T01:47:51;95291.19;;;13.82;70.49
5691;BME280;2870;42.680;23.364;2023-05-08T01:50:25;95285.19;;;13.77;71.13
5691;BME280;2870;42.680;23.364;2023-05-08T01:52:58;95283.34;;;13.72;71.78
5691;BME280;2870;42.680;23.364;2023-05-08T01:55:30;95277.41;;;13.68;71.68
5691;BME280;2870;42.680;23.364;2023-05-08T01:58:00;95281.13;;;13.71;71.48
5691;BME280;2870;42.680;23.364;2023-05-08T02:03:04;95288.69;;;13.68;73.23
5691;BME280;2870;42.680;23.364;2023-05-08T02:05:32;95278.31;;;13.71;70.87
5691;BME280;2870;42.680;23.364;2023-05-08T02:08:01;95277.97;;;13.67;73.30
5691;BME280;2870;42.680;23.364;2023-05-08T02:10:29;95285.34;;;13.62;72.34
5691;BME280;2870;42.680;23.364;2023-05-08T02:12:57;95283.84;;;13.61;73.08
5691;BME280;2870;42.680;23.364;2023-05-08T02:15:26;95250.78;;;13.37;74.90
5691;BME280;2870;42.680;23.364;2023-05-08T02:17:55;95283.78;;;13.44;74.97
5691;BME280;2870;42.680;23.364;2023-05-08T02:20:25;95282.06;;;13.48;74.23
5691;BME280;2870;42.680;23.364;2023-05-08T02:22:53;95292.31;;;13.36;75.17
5691;BME280;2870;42.680;23.364;2023-05-08T02:25:21;95291.72;;;13.38;75.03
5691;BME280;2870;42.680;23.364;2023-05-08T02:27:49;95288.75;;;13.36;76.25
5691;BME280;2870;42.680;23.364;2023-05-08T02:30:18;95290.75;;;13.43;74.81
5691;BME280;2870;42.680;23.364;2023-05-08T02:32:48;95281.97;;;13.39;75.47
5691;BME280;2870;42.680;23.364;2023-05-08T02:35:16;95278.09;;;13.26;75.00
5691;BME280;2870;42.680;23.364;2023-05-08T02:37:48;95236.09;;;12.88;77.44
5691;BME280;2870;42.680;23.364;2023-05-08T02:40:16;95287.84;;;13.33;76.32
5691;BME280;2870;42.680;23.364;2023-05-08T02:42:43;95285.41;;;13.30;74.92
5691;BME280;2870;42.680;23.364;2023-05-08T02:45:11;95288.06;;;13.20;75.94
5691;BME280;2870;42.680;23.364;2023-05-08T02:47:45;95284.28;;;13.00;77.78
5691;BME280;2870;42.680;23.364;2023-05-08T02:50:16;95292.59;;;12.90;76.81
5691;BME280;2870;42.680;23.364;2023-05-08T02:52:48;95291.78;;;12.97;76.07
5691;BME280;2870;42.680;23.364;2023-05-08T02:55:25;95300.06;;;12.95;78.26
5691;BME280;2870;42.680;23.364;2023-05-08T02:58:01;95300.28;;;12.90;77.44
5691;BME280;2870;42.680;23.364;2023-05-08T03:00:33;95292.63;;;12.83;78.08
5691;BME280;2870;42.680;23.364;2023-05-08T03:03:07;95292.28;;;12.79;78.40
5691;BME280;2870;42.680;23.364;2023-05-08T03:05:37;95307.00;;;12.62;79.34
5691;BME280;2870;42.680;23.364;2023-05-08T03:08:13;95295.34;;;12.65;79.28
5691;BME280;2870;42.680;23.364;2023-05-08T03:10:42;95302.47;;;12.66;80.98
5691;BME280;2870;42.680;23.364;2023-05-08T03:13:11;95300.63;;;12.61;80.43
5691;BME280;2870;42.680;23.364;2023-05-08T03:15:42;95304.16;;;12.62;82.55
5691;BME280;2870;42.680;23.364;2023-05-08T03:18:13;95297.53;;;12.82;80.15
5691;BME280;2870;42.680;23.364;2023-05-08T03:20:44;95301.69;;;12.73;80.95
5691;BME280;2870;42.680;23.364;2023-05-08T03:23:14;95303.69;;;12.81;79.69
5691;BME280;2870;42.680;23.364;2023-05-08T03:25:43;95303.22;;;12.67;80.22
5691;BME280;2870;42.680;23.364;2023-05-08T03:28:10;95248.31;;;12.10;80.30
5691;BME280;2870;42.680;23.364;2023-05-08T03:30:39;95307.78;;;12.55;81.44
5691;BME280;2870;42.680;23.364;2023-05-08T03:33:07;95297.97;;;12.63;80.20
5691;BME280;2870;42.680;23.364;2023-05-08T03:35:35;95313.75;;;12.59;80.33
5691;BME280;2870;42.680;23.364;2023-05-08T03:38:02;95318.63;;;12.58;82.26
5691;BME280;2870;42.680;23.364;2023-05-08T03:40:32;95280.31;;;12.23;80.57
5691;BME280;2870;42.680;23.364;2023-05-08T03:43:01;95308.94;;;12.44;81.84
5691;BME280;2870;42.680;23.364;2023-05-08T03:45:29;95307.97;;;12.49;81.35
5691;BME280;2870;42.680;23.364;2023-05-08T03:47:58;95306.81;;;12.52;81.03
5691;BME280;2870;42.680;23.364;2023-05-08T03:50:26;95312.47;;;12.52;81.63
5691;BME280;2870;42.680;23.364;2023-05-08T03:52:54;95305.88;;;12.57;81.91
5691;BME280;2870;42.680;23.364;2023-05-08T03:55:21;95311.81;;;12.69;80.00
5691;BME280;2870;42.680;23.364;2023-05-08T03:57:54;95314.69;;;12.61;80.85
5691;BME280;2870;42.680;23.364;2023-05-08T04:00:28;95317.50;;;12.61;81.16
5691;BME280;2870;42.680;23.364;2023-05-08T04:03:09;95315.91;;;12.76;80.00
5691;BME280;2870;42.680;23.364;2023-05-08T04:05:45;95315.53;;;12.79;79.73
5691;BME280;2870;42.680;23.364;2023-05-08T04:08:16;95325.88;;;12.77;80.71
5691;BME280;2870;42.680;23.364;2023-05-08T04:10:48;95327.19;;;12.76;81.17
5691;BME280;2870;42.680;23.364;2023-05-08T04:13:21;95319.94;;;12.97;79.42
5691;BME280;2870;42.680;23.364;2023-05-08T04:15:54;95324.91;;;12.82;78.77
5691;BME280;2870;42.680;23.364;2023-05-08T04:18:24;95325.09;;;12.84;78.86
5691;BME280;2870;42.680;23.364;2023-05-08T04:20:55;95334.59;;;12.96;78.00
5691;BME280;2870;42.680;23.364;2023-05-08T04:23:22;95338.69;;;13.03;78.33
5691;BME280;2870;42.680;23.364;2023-05-08T04:25:51;95340.94;;;13.04;77.63
5691;BME280;2870;42.680;23.364;2023-05-08T04:28:21;95344.75;;;12.91;78.54
5691;BME280;2870;42.680;23.364;2023-05-08T04:30:48;95338.63;;;13.10;78.67
5691;BME280;2870;42.680;23.364;2023-05-08T04:33:15;95336.81;;;13.05;78.29
5691;BME280;2870;42.680;23.364;2023-05-08T04:35:43;95333.41;;;13.07;78.91
5691;BME280;2870;42.680;23.364;2023-05-08T04:38:11;95334.00;;;13.05;79.83
5691;BME280;2870;42.680;23.364;2023-05-08T04:40:38;95331.06;;;13.20;79.62
5691;BME280;2870;42.680;23.364;2023-05-08T04:43:05;95332.97;;;13.18;80.55
5691;BME280;2870;42.680;23.364;2023-05-08T04:45:33;95322.91;;;13.07;78.34
5691;BME280;2870;42.680;23.364;2023-05-08T04:48:00;95324.38;;;13.08;78.02
5691;BME280;2870;42.680;23.364;2023-05-08T04:50:27;95323.94;;;13.19;78.49
5691;BME280;2870;42.680;23.364;2023-05-08T04:52:54;95323.59;;;13.15;77.96
5691;BME280;2870;42.680;23.364;2023-05-08T04:55:21;95315.25;;;13.33;78.52
5691;BME280;2870;42.680;23.364;2023-05-08T04:57:48;95317.78;;;13.46;78.24
5691;BME280;2870;42.680;23.364;2023-05-08T05:00:15;95329.38;;;13.50;77.89
5691;BME280;2870;42.680;23.364;2023-05-08T05:02:44;95327.41;;;13.68;78.77
5691;BME280;2870;42.680;23.364;2023-05-08T05:05:11;95331.75;;;13.86;75.31
5691;BME280;2870;42.680;23.364;2023-05-08T05:07:37;95320.91;;;14.17;73.99
5691;BME280;2870;42.680;23.364;2023-05-08T05:10:05;95318.53;;;14.31;73.27
5691;BME280;2870;42.680;23.364;2023-05-08T05:12:32;95316.25;;;13.95;74.55
5691;BME280;2870;42.680;23.364;2023-05-08T05:14:58;95310.44;;;13.93;73.80
5691;BME280;2870;42.680;23.364;2023-05-08T05:17:26;95317.06;;;13.88;74.78
5691;BME280;2870;42.680;23.364;2023-05-08T05:19:54;95315.53;;;13.69;75.94
5691;BME280;2870;42.680;23.364;2023-05-08T05:22:21;95316.03;;;13.75;75.02
5691;BME280;2870;42.680;23.364;2023-05-08T05:24:48;95314.75;;;13.94;74.94
5691;BME280;2870;42.680;23.364;2023-05-08T05:27:16;95311.41;;;14.30;74.16
5691;BME280;2870;42.680;23.364;2023-05-08T05:29:42;95306.81;;;14.52;73.62
5691;BME280;2870;42.680;23.364;2023-05-08T05:32:12;95310.97;;;14.68;72.67
5691;BME280;2870;42.680;23.364;2023-05-08T05:34:38;95318.66;;;14.85;72.85
5691;BME280;2870;42.680;23.364;2023-05-08T05:37:06;95323.78;;;14.96;72.27
5691;BME280;2870;42.680;23.364;2023-05-08T05:39:33;95317.94;;;15.11;71.82
5691;BME280;2870;42.680;23.364;2023-05-08T05:42:00;95324.06;;;14.91;73.46
5691;BME280;2870;42.680;23.364;2023-05-08T05:44:27;95317.78;;;14.82;72.70
5691;BME280;2870;42.680;23.364;2023-05-08T05:46:54;95315.63;;;14.56;74.28
5691;BME280;2870;42.680;23.364;2023-05-08T05:49:21;95316.31;;;14.64;74.68
5691;BME280;2870;42.680;23.364;2023-05-08T05:51:47;95318.84;;;14.87;73.97
5691;BME280;2870;42.680;23.364;2023-05-08T05:54:16;95320.75;;;14.84;71.92
5691;BME280;2870;42.680;23.364;2023-05-08T05:56:42;95317.56;;;14.98;72.29
5691;BME280;2870;42.680;23.364;2023-05-08T05:59:09;95312.28;;;15.38;70.68
5691;BME280;2870;42.680;23.364;2023-05-08T06:01:36;95307.19;;;15.64;71.28
5691;BME280;2870;42.680;23.364;2023-05-08T06:04:03;95296.53;;;15.72;70.38
5691;BME280;2870;42.680;23.364;2023-05-08T06:06:30;95304.22;;;15.35;70.18
5691;BME280;2870;42.680;23.364;2023-05-08T06:08:57;95310.69;;;15.18;69.95
5691;BME280;2870;42.680;23.364;2023-05-08T06:11:25;95295.47;;;15.41;70.08
5691;BME280;2870;42.680;23.364;2023-05-08T06:13:52;95300.81;;;15.36;70.07
5691;BME280;2870;42.680;23.364;2023-05-08T06:16:19;95295.19;;;15.73;70.57
5691;BME280;2870;42.680;23.364;2023-05-08T06:18:47;95296.00;;;15.56;69.62
5691;BME280;2870;42.680;23.364;2023-05-08T06:21:14;95303.25;;;15.50;69.68
5691;BME280;2870;42.680;23.364;2023-05-08T06:23:41;95293.59;;;15.53;69.13
5691;BME280;2870;42.680;23.364;2023-05-08T06:26:08;95292.09;;;15.98;68.18
5691;BME280;2870;42.680;23.364;2023-05-08T06:28:36;95296.13;;;16.05;68.81
5691;BME280;2870;42.680;23.364;2023-05-08T06:31:03;95296.47;;;16.48;69.22
5691;BME280;2870;42.680;23.364;2023-05-08T06:33:30;95299.47;;;16.69;66.73
5691;BME280;2870;42.680;23.364;2023-05-08T06:35:56;95303.47;;;16.66;66.07
5691;BME280;2870;42.680;23.364;2023-05-08T06:38:23;95294.38;;;16.38;66.14
5691;BME280;2870;42.680;23.364;2023-05-08T06:40:50;95305.44;;;16.34;66.70
5691;BME280;2870;42.680;23.364;2023-05-08T06:43:18;95307.19;;;16.30;66.11
5691;BME280;2870;42.680;23.364;2023-05-08T06:45:46;95308.25;;;16.73;66.98
5691;BME280;2870;42.680;23.364;2023-05-08T06:48:13;95306.09;;;17.22;64.64
5691;BME280;2870;42.680;23.364;2023-05-08T06:50:40;95312.41;;;17.11;63.91
5691;BME280;2870;42.680;23.364;2023-05-08T06:53:07;95312.63;;;17.34;65.04
5691;BME280;2870;42.680;23.364;2023-05-08T06:55:34;95302.41;;;17.91;61.82
5691;BME280;2870;42.680;23.364;2023-05-08T06:58:01;95301.63;;;18.00;59.67
5691;BME280;2870;42.680;23.364;2023-05-08T07:00:28;95304.50;;;18.22;59.11
5691;BME280;2870;42.680;23.364;2023-05-08T07:02:56;95307.78;;;18.18;60.81
5691;BME280;2870;42.680;23.364;2023-05-08T07:05:23;95303.78;;;17.90;60.55
5691;BME280;2870;42.680;23.364;2023-05-08T07:07:50;95313.19;;;18.14;60.82
5691;BME280;2870;42.680;23.364;2023-05-08T07:10:18;95310.34;;;18.14;63.27
5691;BME280;2870;42.680;23.364;2023-05-08T07:12:46;95311.72;;;18.13;59.44
5691;BME280;2870;42.680;23.364;2023-05-08T07:15:13;95300.00;;;17.97;59.55
5691;BME280;2870;42.680;23.364;2023-05-08T07:17:40;95309.16;;;17.86;63.50
5691;BME280;2870;42.680;23.364;2023-05-08T07:20:09;95317.13;;;17.78;61.56
5691;BME280;2870;42.680;23.364;2023-05-08T07:22:36;95315.72;;;17.89;61.70
5691;BME280;2870;42.680;23.364;2023-05-08T07:25:03;95313.25;;;18.26;60.29
5691;BME280;2870;42.680;23.364;2023-05-08T07:27:30;95313.81;;;18.56;60.36
5691;BME280;2870;42.680;23.364;2023-05-08T07:29:57;95311.84;;;18.37;61.35
5691;BME280;2870;42.680;23.364;2023-05-08T07:32:28;95309.94;;;18.08;59.72
5691;BME280;2870;42.680;23.364;2023-05-08T07:34:55;95303.50;;;17.86;61.14
5691;BME280;2870;42.680;23.364;2023-05-08T07:37:23;95317.47;;;18.25;60.70
5691;BME280;2870;42.680;23.364;2023-05-08T07:39:50;95317.06;;;18.62;59.29
5691;BME280;2870;42.680;23.364;2023-05-08T07:42:17;95309.75;;;18.37;60.49
5691;BME280;2870;42.680;23.364;2023-05-08T07:44:44;95321.91;;;18.92;57.46
5691;BME280;2870;42.680;23.364;2023-05-08T07:47:10;95317.16;;;19.06;58.92
5691;BME280;2870;42.680;23.364;2023-05-08T07:49:38;95324.31;;;19.08;56.04
5691;BME280;2870;42.680;23.364;2023-05-08T07:52:05;95323.56;;;19.07;57.66
5691;BME280;2870;42.680;23.364;2023-05-08T07:54:33;95319.03;;;19.70;56.59
5691;BME280;2870;42.680;23.364;2023-05-08T07:57:00;95323.06;;;19.55;57.16
5691;BME280;2870;42.680;23.364;2023-05-08T07:59:26;95328.28;;;20.29;53.03
5691;BME280;2870;42.680;23.364;2023-05-08T08:01:53;95328.63;;;20.96;52.85
5691;BME280;2870;42.680;23.364;2023-05-08T08:04:20;95339.00;;;21.80;48.69
5691;BME280;2870;42.680;23.364;2023-05-08T08:06:47;95335.19;;;21.50;49.45
5691;BME280;2870;42.680;23.364;2023-05-08T08:09:14;95329.56;;;21.77;51.44
5691;BME280;2870;42.680;23.364;2023-05-08T08:11:43;95324.97;;;22.39;48.47
5691;BME280;2870;42.680;23.364;2023-05-08T08:14:09;95336.28;;;22.23;47.51
5691;BME280;2870;42.680;23.364;2023-05-08T08:16:36;95334.94;;;22.24;49.49
5691;BME280;2870;42.680;23.364;2023-05-08T08:19:03;95337.44;;;22.04;47.52
5691;BME280;2870;42.680;23.364;2023-05-08T08:21:30;95331.59;;;21.49;48.56
5691;BME280;2870;42.680;23.364;2023-05-08T08:23:57;95336.56;;;21.88;49.36
5691;BME280;2870;42.680;23.364;2023-05-08T08:26:24;95322.56;;;22.19;48.06
5691;BME280;2870;42.680;23.364;2023-05-08T08:28:52;95330.31;;;22.74;46.90
5691;BME280;2870;42.680;23.364;2023-05-08T08:31:19;95324.66;;;22.46;49.42
5691;BME280;2870;42.680;23.364;2023-05-08T08:33:46;95324.41;;;22.70;48.15
5691;BME280;2870;42.680;23.364;2023-05-08T08:36:13;95321.34;;;22.66;47.61
5691;BME280;2870;42.680;23.364;2023-05-08T08:38:40;95317.91;;;22.97;46.63
5691;BME280;2870;42.680;23.364;2023-05-08T08:41:07;95326.81;;;23.03;46.77
5691;BME280;2870;42.680;23.364;2023-05-08T08:43:34;95315.41;;;22.75;46.80
5691;BME280;2870;42.680;23.364;2023-05-08T08:46:09;95308.66;;;21.86;49.44
5691;BME280;2870;42.680;23.364;2023-05-08T08:48:42;95311.75;;;21.51;50.66
5691;BME280;2870;42.680;23.364;2023-05-08T08:51:22;95277.69;;;20.90;52.07
5691;BME280;2870;42.680;23.364;2023-05-08T08:53:55;95292.97;;;20.46;54.16
5691;BME280;2870;42.680;23.364;2023-05-08T08:56:29;95292.22;;;21.08;55.28
5691;BME280;2870;42.680;23.364;2023-05-08T08:58:57;95293.66;;;21.21;54.31
5691;BME280;2870;42.680;23.364;2023-05-08T09:01:27;95270.13;;;20.95;54.39
5691;BME280;2870;42.680;23.364;2023-05-08T09:03:56;95281.59;;;21.48;55.68
5691;BME280;2870;42.680;23.364;2023-05-08T09:06:24;95275.72;;;21.58;51.97
5691;BME280;2870;42.680;23.364;2023-05-08T09:08:54;95268.38;;;21.41;53.06
5691;BME280;2870;42.680;23.364;2023-05-08T09:11:21;95264.53;;;20.72;53.22
5691;BME280;2870;42.680;23.364;2023-05-08T09:13:47;95268.25;;;20.62;54.61
5691;BME280;2870;42.680;23.364;2023-05-08T09:16:14;95267.38;;;20.97;56.52
5691;BME280;2870;42.680;23.364;2023-05-08T09:18:43;95263.59;;;20.81;54.09
5691;BME280;2870;42.680;23.364;2023-05-08T09:21:10;95255.63;;;20.66;55.54
5691;BME280;2870;42.680;23.364;2023-05-08T09:23:37;95247.38;;;20.83;56.45
5691;BME280;2870;42.680;23.364;2023-05-08T09:26:30;95245.25;;;20.84;54.52
5691;BME280;2870;42.680;23.364;2023-05-08T09:29:08;95233.09;;;20.58;55.36
5691;BME280;2870;42.680;23.364;2023-05-08T09:31:36;95231.34;;;20.90;55.21
5691;BME280;2870;42.680;23.364;2023-05-08T09:34:06;95244.72;;;21.13;54.30
5691;BME280;2870;42.680;23.364;2023-05-08T09:36:33;95240.94;;;20.83;54.78
5691;BME280;2870;42.680;23.364;2023-05-08T09:39:00;95244.16;;;20.40;55.06
5691;BME280;2870;42.680;23.364;2023-05-08T09:41:27;95243.63;;;20.55;56.08
5691;BME280;2870;42.680;23.364;2023-05-08T09:44:00;95247.97;;;21.07;54.89
5691;BME280;2870;42.680;23.364;2023-05-08T09:46:27;95256.97;;;21.15;53.68
5691;BME280;2870;42.680;23.364;2023-05-08T09:48:56;95255.50;;;21.14;54.51
5691;BME280;2870;42.680;23.364;2023-05-08T09:51:28;95252.59;;;20.75;57.40
5691;BME280;2870;42.680;23.364;2023-05-08T09:53:57;95261.69;;;20.72;58.38
5691;BME280;2870;42.680;23.364;2023-05-08T09:56:37;95258.56;;;20.93;56.65
5691;BME280;2870;42.680;23.364;2023-05-08T10:01:47;95253.72;;;21.21;55.85
5691;BME280;2870;42.680;23.364;2023-05-08T10:04:14;95256.22;;;21.15;56.18
5691;BME280;2870;42.680;23.364;2023-05-08T10:06:42;95249.53;;;20.71;56.02
5691;BME280;2870;42.680;23.364;2023-05-08T10:09:10;95246.97;;;20.89;56.65
5691;BME280;2870;42.680;23.364;2023-05-08T10:11:38;95251.09;;;21.64;54.45
5691;BME280;2870;42.680;23.364;2023-05-08T10:14:05;95253.22;;;21.78;55.92
5691;BME280;2870;42.680;23.364;2023-05-08T10:16:40;95246.22;;;21.94;54.01
5691;BME280;2870;42.680;23.364;2023-05-08T10:19:13;95239.16;;;22.09;52.61
5691;BME280;2870;42.680;23.364;2023-05-08T10:21:45;95248.69;;;21.73;53.73
5691;BME280;2870;42.680;23.364;2023-05-08T10:24:14;95243.47;;;21.69;55.05
5691;BME280;2870;42.680;23.364;2023-05-08T10:26:43;95231.56;;;21.73;55.11
5691;BME280;2870;42.680;23.364;2023-05-08T10:29:17;95234.28;;;21.70;55.09
5691;BME280;2870;42.680;23.364;2023-05-08T10:31:49;95234.78;;;21.53;55.31
5691;BME280;2870;42.680;23.364;2023-05-08T10:34:21;95218.41;;;21.40;54.40
5691;BME280;2870;42.680;23.364;2023-05-08T10:36:50;95225.84;;;21.73;56.21
5691;BME280;2870;42.680;23.364;2023-05-08T10:39:18;95221.81;;;21.78;55.67
5691;BME280;2870;42.680;23.364;2023-05-08T10:41:47;95227.31;;;21.74;55.39
5691;BME280;2870;42.680;23.364;2023-05-08T10:44:14;95218.94;;;21.78;55.48
5691;BME280;2870;42.680;23.364;2023-05-08T10:46:48;95213.34;;;21.80;54.11
5691;BME280;2870;42.680;23.364;2023-05-08T10:49:19;95214.72;;;22.20;53.49
5691;BME280;2870;42.680;23.364;2023-05-08T10:51:57;95216.50;;;22.27;54.17
5691;BME280;2870;42.680;23.364;2023-05-08T10:54:35;95213.91;;;22.90;52.60
5691;BME280;2870;42.680;23.364;2023-05-08T10:57:08;95206.03;;;22.32;53.17
5691;BME280;2870;42.680;23.364;2023-05-08T10:59:36;95204.94;;;22.39;54.22
5691;BME280;2870;42.680;23.364;2023-05-08T11:02:03;95207.91;;;22.41;52.03
5691;BME280;2870;42.680;23.364;2023-05-08T11:04:31;95213.19;;;22.46;50.99
5691;BME280;2870;42.680;23.364;2023-05-08T11:06:59;95206.97;;;22.66;51.98
5691;BME280;2870;42.680;23.364;2023-05-08T11:09:28;95199.19;;;22.53;51.28
5691;BME280;2870;42.680;23.364;2023-05-08T11:12:05;95201.41;;;22.84;49.66
5691;BME280;2870;42.680;23.364;2023-05-08T11:14:33;95193.50;;;22.68;49.97
5691;BME280;2870;42.680;23.364;2023-05-08T11:17:05;95177.34;;;22.30;50.70
5691;BME280;2870;42.680;23.364;2023-05-08T11:19:33;95182.75;;;22.83;53.98
5691;BME280;2870;42.680;23.364;2023-05-08T11:22:31;95179.81;;;23.26;50.85
5691;BME280;2870;42.680;23.364;2023-05-08T11:25:00;95176.47;;;23.00;51.22
5691;BME280;2870;42.680;23.364;2023-05-08T11:27:38;95171.81;;;22.63;50.97
5691;BME280;2870;42.680;23.364;2023-05-08T11:30:19;95161.53;;;23.17;48.54
5691;BME280;2870;42.680;23.364;2023-05-08T11:35:52;95157.44;;;23.54;47.54
5691;BME280;2870;42.680;23.364;2023-05-08T11:38:23;95146.94;;;23.27;50.97
5691;BME280;2870;42.680;23.364;2023-05-08T11:40:55;95157.16;;;23.79;46.07
5691;BME280;2870;42.680;23.364;2023-05-08T11:43:47;95141.84;;;24.06;44.30
5691;BME280;2870;42.680;23.364;2023-05-08T11:46:16;95139.63;;;23.71;44.53
5691;BME280;2870;42.680;23.364;2023-05-08T11:48:45;95133.44;;;23.61;45.51
5691;BME280;2870;42.680;23.364;2023-05-08T11:51:12;95128.06;;;23.69;45.74
5691;BME280;2870;42.680;23.364;2023-05-08T11:53:42;95122.72;;;23.77;45.63
5691;BME280;2870;42.680;23.364;2023-05-08T11:56:09;95115.84;;;23.85;45.52
5691;BME280;2870;42.680;23.364;2023-05-08T11:58:36;95125.44;;;23.10;46.15
5691;BME280;2870;42.680;23.364;2023-05-08T12:01:03;95109.34;;;23.66;44.53
5691;BME280;2870;42.680;23.364;2023-05-08T12:03:30;95105.88;;;24.03;44.78
5691;BME280;2870;42.680;23.364;2023-05-08T12:05:58;95111.72;;;24.05;44.67
5691;BME280;2870;42.680;23.364;2023-05-08T12:08:25;95111.16;;;24.27;43.87
5691;BME280;2870;42.680;23.364;2023-05-08T12:10:54;95116.28;;;23.95;43.71
5691;BME280;2870;42.680;23.364;2023-05-08T12:13:23;95102.16;;;24.17;44.13
5691;BME280;2870;42.680;23.364;2023-05-08T12:15:52;95104.03;;;24.28;43.88
5691;BME280;2870;42.680;23.364;2023-05-08T12:18:21;95103.75;;;24.04;43.86
5691;BME280;2870;42.680;23.364;2023-05-08T12:20:50;95101.59;;;24.38;43.67
5691;BME280;2870;42.680;23.364;2023-05-08T12:23:18;95094.63;;;24.61;43.94
5691;BME280;2870;42.680;23.364;2023-05-08T12:25:44;95099.69;;;24.80;43.39
5691;BME280;2870;42.680;23.364;2023-05-08T12:28:12;95098.66;;;25.29;42.03
5691;BME280;2870;42.680;23.364;2023-05-08T12:30:40;95097.94;;;24.91;42.71
5691;BME280;2870;42.680;23.364;2023-05-08T12:33:07;95089.38;;;24.73;42.19
5691;BME280;2870;42.680;23.364;2023-05-08T12:35:36;95095.63;;;24.50;42.34
5691;BME280;2870;42.680;23.364;2023-05-08T12:38:06;95079.25;;;24.90;42.32
5691;BME280;2870;42.680;23.364;2023-05-08T12:40:35;95077.75;;;25.07;42.42
5691;BME280;2870;42.680;23.364;2023-05-08T12:43:07;95085.81;;;24.93;43.36
5691;BME280;2870;42.680;23.364;2023-05-08T12:45:36;95079.38;;;24.03;43.16
5691;BME280;2870;42.680;23.364;2023-05-08T12:48:05;95080.34;;;24.27;43.50
5691;BME280;2870;42.680;23.364;2023-05-08T12:50:33;95078.84;;;24.42;43.77
5691;BME280;2870;42.680;23.364;2023-05-08T12:53:02;95086.41;;;24.00;43.72
5691;BME280;2870;42.680;23.364;2023-05-08T12:55:31;95077.25;;;24.21;43.72
5691;BME280;2870;42.680;23.364;2023-05-08T12:58:00;95075.38;;;24.28;43.38
5691;BME280;2870;42.680;23.364;2023-05-08T13:00:35;95070.34;;;23.93;43.61
5691;BME280;2870;42.680;23.364;2023-05-08T13:03:03;95066.75;;;23.92;44.60
5691;BME280;2870;42.680;23.364;2023-05-08T13:05:30;95077.00;;;23.97;44.21
5691;BME280;2870;42.680;23.364;2023-05-08T13:08:00;95094.63;;;23.58;47.01
5691;BME280;2870;42.680;23.364;2023-05-08T13:10:47;95092.06;;;22.54;52.72
5691;BME280;2870;42.680;23.364;2023-05-08T13:13:16;95083.31;;;22.06;54.89
5691;BME280;2870;42.680;23.364;2023-05-08T13:15:45;95091.00;;;21.74;57.53
5691;BME280;2870;42.680;23.364;2023-05-08T13:18:13;95091.25;;;21.37;58.21
5691;BME280;2870;42.680;23.364;2023-05-08T13:20:40;95099.59;;;21.33;58.80
5691;BME280;2870;42.680;23.364;2023-05-08T13:23:08;95112.16;;;21.55;58.19
5691;BME280;2870;42.680;23.364;2023-05-08T13:25:36;95115.13;;;21.30;58.71
5691;BME280;2870;42.680;23.364;2023-05-08T13:28:04;95103.59;;;21.28;58.77
5691;BME280;2870;42.680;23.364;2023-05-08T13:30:31;95104.31;;;21.14;60.99
5691;BME280;2870;42.680;23.364;2023-05-08T13:33:00;95117.00;;;21.11;59.45
5691;BME280;2870;42.680;23.364;2023-05-08T13:35:27;95108.41;;;20.84;60.15
5691;BME280;2870;42.680;23.364;2023-05-08T13:37:54;95115.97;;;20.66;61.12